Time;durP1;ratioP1;P1;durP2;ratioP2;P2;SDS_P1;SDS_P2;PMS_P1;PMS_P2;Temp;Humidity;BMP_temperature;BMP_pressure;BME280_temperature;BME280_humidity;BME280_pressure;Samples;Min_cycle;Max_cycle;Signal;HPM_P1;HPM_P2
2023/12/28 00:03:59;;;;;;;1.30;1.05;;;;;;;7.05;87.05;99828.38;10474831;28;20072;-80
2023/12/28 00:09:02;;;;;;;2.58;1.35;;;;;;;6.53;95.57;99831.34;10474678;28;20037;-80
2023/12/28 00:14:15;;;;;;;4.93;1.55;;;;;;;6.55;100.00;99819.56;10477698;28;20056;-81
2023/12/28 00:19:19;;;;;;;0.85;0.73;;;;;;;6.31;100.00;99826.72;10473860;28;20037;-80
2023/12/28 00:24:22;;;;;;;7.22;1.88;;;;;;;6.50;100.00;99818.19;10453964;28;20065;-81
2023/12/28 00:29:28;;;;;;;1.77;1.40;;;;;;;6.25;100.00;99827.97;10473571;28;20044;-80
2023/12/28 00:34:31;;;;;;;1.98;1.23;;;;;;;6.08;100.00;99837.19;10483186;28;20043;-81
2023/12/28 00:39:35;;;;;;;5.32;1.77;;;;;;;6.28;100.00;99832.25;10436085;28;20051;-82
2023/12/28 00:44:39;;;;;;;3.08;1.90;;;;;;;6.35;100.00;99845.03;10475721;28;20194;-81
2023/12/28 00:49:43;;;;;;;1.95;1.30;;;;;;;6.11;100.00;99866.31;10444281;28;20045;-81
2023/12/28 00:54:45;;;;;;;6.00;1.60;;;;;;;6.21;100.00;99858.53;10456723;28;20512;-79
2023/12/28 00:59:50;;;;;;;4.05;1.90;;;;;;;6.15;100.00;99862.47;10473520;28;20037;-80
2023/12/28 01:04:53;;;;;;;2.03;1.48;;;;;;;6.19;100.00;99868.44;10467494;28;20053;-79
2023/12/28 01:09:56;;;;;;;4.15;1.73;;;;;;;6.51;100.00;99834.13;10463164;28;20037;-80
2023/12/28 01:15:01;;;;;;;5.95;2.05;;;;;;;6.52;100.00;99843.81;10450529;28;20045;-79
2023/12/28 01:20:06;;;;;;;2.65;1.65;;;;;;;6.51;100.00;99886.63;10441726;28;20041;-81
2023/12/28 01:25:09;;;;;;;3.90;2.53;;;;;;;6.83;100.00;99853.13;10465424;28;20049;-80
2023/12/28 01:30:14;;;;;;;5.03;1.75;;;;;;;6.94;100.00;99867.50;10444376;28;20061;-78
2023/12/28 01:35:18;;;;;;;4.93;2.13;;;;;;;6.98;100.00;99888.53;10463645;28;20039;-82
2023/12/28 01:40:21;;;;;;;3.05;1.70;;;;;;;7.30;100.00;99874.59;10489876;28;20025;-83
2023/12/28 01:45:25;;;;;;;3.30;2.00;;;;;;;7.04;100.00;99880.06;10466814;28;20056;-80
2023/12/28 01:50:28;;;;;;;6.05;1.65;;;;;;;7.29;100.00;99872.88;10447486;28;20500;-79
2023/12/28 01:55:34;;;;;;;7.30;2.15;;;;;;;7.37;100.00;99878.50;10474654;28;20063;-80
2023/12/28 02:00:39;;;;;;;3.35;2.30;;;;;;;7.32;100.00;99912.72;10457871;28;20040;-80
2023/12/28 02:05:42;;;;;;;4.25;1.88;;;;;;;7.30;100.00;99919.19;10475234;28;20041;-81
2023/12/28 02:10:45;;;;;;;4.65;2.10;;;;;;;7.35;100.00;99920.53;10462564;28;20644;-81
2023/12/28 02:15:55;;;;;;;2.53;1.83;;;;;;;7.49;100.00;99906.13;10459140;28;20090;-82
2023/12/28 02:20:59;;;;;;;4.97;1.90;;;;;;;7.54;100.00;99936.00;10447578;28;20504;-81
2023/12/28 02:26:03;;;;;;;2.83;1.67;;;;;;;7.54;100.00;99935.16;10458644;28;20045;-81
2023/12/28 02:31:08;;;;;;;5.22;2.00;;;;;;;7.88;100.00;99938.81;10474339;28;20071;-80
2023/12/28 02:36:14;;;;;;;3.75;1.95;;;;;;;7.64;100.00;99933.50;10466882;28;20117;-81
2023/12/28 02:41:19;;;;;;;5.43;2.45;;;;;;;7.99;100.00;99938.81;10456203;28;20116;-80
2023/12/28 02:46:24;;;;;;;2.55;1.80;;;;;;;7.94;100.00;99930.31;10441985;28;20115;-82
2023/12/28 02:51:27;;;;;;;3.92;2.03;;;;;;;7.69;100.00;99934.84;10457457;28;20478;-81
2023/12/28 02:56:32;;;;;;;1.95;1.75;;;;;;;7.50;100.00;99926.53;10474471;28;20747;-81
2023/12/28 03:01:35;;;;;;;3.78;1.60;;;;;;;7.72;100.00;99945.31;10467448;28;20029;-83
2023/12/28 03:06:40;;;;;;;3.63;2.15;;;;;;;7.66;100.00;99928.91;10463683;28;20410;-80
2023/12/28 03:11:45;;;;;;;2.85;1.83;;;;;;;7.60;100.00;99922.19;10460265;28;20087;-80
2023/12/28 03:16:48;;;;;;;3.28;1.90;;;;;;;7.66;100.00;99924.41;10444451;28;20056;-82
2023/12/28 03:21:51;;;;;;;3.13;2.20;;;;;;;7.84;100.00;99915.94;10462162;28;20506;-80
2023/12/28 03:26:55;;;;;;;4.72;2.42;;;;;;;7.72;100.00;99907.03;10468975;28;20044;-81
2023/12/28 03:32:00;;;;;;;5.07;1.60;;;;;;;7.44;100.00;99932.34;10473807;28;20070;-81
2023/12/28 03:37:03;;;;;;;3.05;1.90;;;;;;;7.55;100.00;99916.34;10451299;28;20095;-80
2023/12/28 03:42:08;;;;;;;3.35;2.72;;;;;;;7.92;100.00;99902.81;10477821;28;20045;-80
2023/12/28 03:47:11;;;;;;;3.20;2.50;;;;;;;7.62;100.00;99917.56;10471341;28;20045;-80
2023/12/28 03:52:13;;;;;;;2.90;1.95;;;;;;;7.75;100.00;99912.16;10486138;28;20112;-80
2023/12/28 03:57:18;;;;;;;3.35;2.08;;;;;;;7.76;100.00;99891.59;10477285;28;20041;-82
2023/12/28 04:02:21;;;;;;;1.80;1.70;;;;;;;7.57;100.00;99908.19;10462236;28;20048;-80
2023/12/28 04:07:24;;;;;;;4.10;1.83;;;;;;;7.71;100.00;99914.22;10455565;28;20048;-80
2023/12/28 04:12:29;;;;;;;3.38;2.38;;;;;;;7.89;99.11;99892.38;10471992;28;20053;-81
2023/12/28 04:17:32;;;;;;;3.17;2.50;;;;;;;7.69;100.00;99884.06;10451365;28;20041;-81
2023/12/28 04:22:35;;;;;;;2.45;2.17;;;;;;;8.00;98.70;99881.69;10470794;28;20052;-81
2023/12/28 04:27:40;;;;;;;3.45;1.92;;;;;;;8.03;98.21;99885.94;10470929;28;20040;-81
2023/12/28 04:32:43;;;;;;;2.65;1.15;;;;;;;7.88;98.40;99867.44;10455456;28;20068;-82
2023/12/28 04:37:46;;;;;;;2.85;2.10;;;;;;;8.08;96.91;99857.00;10479258;28;20524;-81
2023/12/28 04:42:50;;;;;;;3.85;2.13;;;;;;;8.07;96.91;99879.41;10461351;28;20044;-82
2023/12/28 04:47:54;;;;;;;2.08;1.75;;;;;;;8.06;96.75;99872.31;10450464;28;20103;-82
2023/12/28 04:52:57;;;;;;;4.78;1.45;;;;;;;7.93;97.20;99877.81;10464810;28;20080;-80
2023/12/28 04:58:01;;;;;;;1.88;1.67;;;;;;;8.03;96.49;99893.97;10450328;28;20065;-82
2023/12/28 05:03:05;;;;;;;3.70;1.83;;;;;;;7.83;97.98;99895.53;10472191;28;20049;-80
2023/12/28 05:08:08;;;;;;;3.60;1.77;;;;;;;8.10;95.47;99904.06;10442624;28;20113;-81
2023/12/28 05:13:13;;;;;;;2.97;2.05;;;;;;;7.88;97.70;99909.38;10475271;28;20041;-81
2023/12/28 05:18:17;;;;;;;4.35;1.98;;;;;;;8.01;95.92;99920.84;10450374;28;20052;-81
2023/12/28 05:23:20;;;;;;;4.45;1.92;;;;;;;8.12;95.12;99923.53;10485663;28;20052;-80
2023/12/28 05:28:24;;;;;;;1.63;1.33;;;;;;;7.93;95.64;99917.91;10482696;28;20051;-82
2023/12/28 05:33:27;;;;;;;3.88;1.85;;;;;;;8.04;94.93;99928.63;10479130;28;20048;-80
2023/12/28 05:38:30;;;;;;;2.17;1.30;;;;;;;8.32;92.99;99921.13;10475612;28;20033;-81
2023/12/28 05:43:35;;;;;;;3.53;1.60;;;;;;;8.36;92.45;99927.91;10477174;28;20453;-79
2023/12/28 05:48:38;;;;;;;2.50;1.80;;;;;;;8.38;92.51;99940.19;10477116;28;20061;-81
2023/12/28 05:53:41;;;;;;;2.78;1.80;;;;;;;8.39;91.70;99938.38;10473403;28;20045;-80
2023/12/28 05:58:45;;;;;;;2.85;1.52;;;;;;;8.14;93.31;99942.97;10482409;28;20043;-81
2023/12/28 06:03:49;;;;;;;3.00;1.15;;;;;;;7.89;94.05;99953.88;10475594;28;20041;-81
2023/12/28 06:08:53;;;;;;;1.55;1.23;;;;;;;8.30;91.02;99947.13;10495126;28;20563;-82
2023/12/28 06:13:58;;;;;;;2.47;1.30;;;;;;;8.36;90.81;99963.59;10482618;28;20411;-82
2023/12/28 06:19:01;;;;;;;1.95;1.17;;;;;;;8.42;90.43;99966.72;10468762;28;20051;-81
2023/12/28 06:24:05;;;;;;;5.57;1.80;;;;;;;8.33;90.77;99965.63;10491122;28;20747;-81
2023/12/28 06:29:09;;;;;;;2.90;1.08;;;;;;;8.18;91.33;99968.53;10471910;28;20135;-77
2023/12/28 06:34:12;;;;;;;1.83;1.17;;;;;;;8.26;90.55;99978.66;10433038;28;20076;-82
2023/12/28 06:39:15;;;;;;;1.90;1.23;;;;;;;8.23;89.78;99962.84;10433175;28;20055;-78
2023/12/28 06:44:20;;;;;;;2.25;1.40;;;;;;;8.14;91.02;99979.56;10469484;28;20416;-81
2023/12/28 06:49:23;;;;;;;4.10;1.60;;;;;;;8.56;88.16;99971.91;10463911;28;20044;-80
2023/12/28 06:54:26;;;;;;;10.05;1.58;;;;;;;8.20;90.08;99973.78;10460647;28;20095;-80
2023/12/28 06:59:30;;;;;;;2.25;1.50;;;;;;;8.50;88.50;99967.88;10478756;28;20049;-79
2023/12/28 07:04:33;;;;;;;2.22;1.40;;;;;;;8.35;89.31;99974.41;10461664;28;20484;-79
2023/12/28 07:09:37;;;;;;;2.65;1.05;;;;;;;8.36;87.83;99976.09;10469695;28;20053;-78
2023/12/28 07:14:41;;;;;;;2.45;1.50;;;;;;;8.47;87.87;99969.91;10448960;28;20040;-80
2023/12/28 07:19:44;;;;;;;4.03;1.58;;;;;;;8.66;86.55;99972.84;10481421;28;20144;-80
2023/12/28 07:24:47;;;;;;;2.15;1.00;;;;;;;8.12;88.37;99968.16;10467250;28;20045;-80
2023/12/28 07:29:52;;;;;;;5.13;1.65;;;;;;;8.41;87.21;99965.88;10471888;28;20033;-80
2023/12/28 07:34:55;;;;;;;2.85;1.50;;;;;;;8.46;86.12;99977.09;10458728;28;20647;-80
2023/12/28 07:39:58;;;;;;;2.45;1.23;;;;;;;8.38;86.87;99990.22;10451620;28;20454;-79
2023/12/28 07:45:03;;;;;;;5.93;2.00;;;;;;;8.57;84.95;99985.13;10446146;28;20406;-81
2023/12/28 07:50:07;;;;;;;3.83;1.50;;;;;;;8.21;87.62;99996.88;10468161;28;20068;-79
2023/12/28 07:55:10;;;;;;;2.90;1.40;;;;;;;8.46;85.32;99990.50;10444197;28;20045;-78
2023/12/28 08:00:15;;;;;;;3.17;1.40;;;;;;;8.33;85.86;100013.78;10452973;28;20064;-80
2023/12/28 08:05:18;;;;;;;3.60;1.63;;;;;;;8.47;84.34;100026.13;10455851;28;20401;-81
2023/12/28 08:10:21;;;;;;;2.83;1.40;;;;;;;8.61;84.18;100028.56;10496831;28;20053;-81
2023/12/28 08:15:26;;;;;;;3.80;1.63;;;;;;;8.58;83.55;100020.78;10488736;28;20074;-81
2023/12/28 08:20:29;;;;;;;4.00;1.40;;;;;;;8.60;83.20;100022.38;10507388;28;20029;-81
2023/12/28 08:25:32;;;;;;;4.28;1.50;;;;;;;8.66;82.91;100014.84;10492237;28;20048;-81
2023/12/28 08:30:36;;;;;;;4.63;1.60;;;;;;;8.44;83.91;100032.53;10481303;28;20048;-81
2023/12/28 08:35:39;;;;;;;2.60;1.40;;;;;;;8.48;83.14;100034.06;10455491;28;20053;-81
2023/12/28 08:40:44;;;;;;;5.57;1.27;;;;;;;8.15;84.41;100029.47;10419854;28;20041;-81
2023/12/28 08:45:48;;;;;;;5.80;1.63;;;;;;;8.39;83.75;100035.59;10451536;28;20048;-80
2023/12/28 08:50:51;;;;;;;5.03;1.45;;;;;;;8.51;81.97;100039.16;10455724;28;20048;-81
2023/12/28 08:55:54;;;;;;;5.50;1.42;;;;;;;8.78;79.97;100038.84;10446409;28;20049;-78
2023/12/28 09:00:59;;;;;;;3.13;1.40;;;;;;;8.79;80.55;100042.34;10448683;28;20055;-79
2023/12/28 09:06:02;;;;;;;3.90;1.23;;;;;;;8.48;81.98;100055.47;10441642;28;20329;-80
2023/12/28 09:11:05;;;;;;;3.83;1.70;;;;;;;9.03;78.90;100051.13;10449776;28;20076;-79
2023/12/28 09:16:12;;;;;;;4.88;1.90;;;;;;;8.46;81.47;100067.28;10451278;28;20405;-79
2023/12/28 09:21:15;;;;;;;5.43;1.77;;;;;;;8.58;81.18;100063.63;10418259;28;20052;-78
2023/12/28 09:26:19;;;;;;;5.05;1.50;;;;;;;8.64;80.41;100056.94;10433556;28;20635;-79
2023/12/28 09:31:23;;;;;;;3.90;1.63;;;;;;;8.67;80.59;100062.94;10446626;28;20037;-79
2023/12/28 09:36:26;;;;;;;4.70;2.03;;;;;;;8.90;79.42;100062.94;10433885;28;20044;-80
2023/12/28 09:41:32;;;;;;;2.72;1.85;;;;;;;8.69;80.69;100084.22;10445008;28;20052;-79
2023/12/28 09:46:38;;;;;;;3.70;1.88;;;;;;;8.81;81.09;100067.19;10451306;28;20051;-79
2023/12/28 09:51:41;;;;;;;3.83;1.60;;;;;;;8.96;79.81;100052.56;10443292;28;20060;-80
2023/12/28 09:56:46;;;;;;;3.50;1.50;;;;;;;8.67;81.30;100046.00;10460774;28;20071;-80
2023/12/28 10:01:50;;;;;;;5.95;1.83;;;;;;;9.09;78.49;100039.06;10454783;28;20049;-80
2023/12/28 10:06:53;;;;;;;5.70;1.92;;;;;;;8.59;81.41;100028.72;10458952;28;21180;-80
2023/12/28 10:11:57;;;;;;;4.22;1.90;;;;;;;8.70;80.13;100032.38;10457181;28;20049;-80
2023/12/28 10:17:02;;;;;;;4.65;1.17;;;;;;;8.97;79.27;100056.13;10458695;28;20063;-80
2023/12/28 10:22:05;;;;;;;6.90;1.63;;;;;;;9.20;78.18;100048.91;10456207;28;20053;-80
2023/12/28 10:27:09;;;;;;;3.20;1.40;;;;;;;9.19;78.92;100048.06;10433085;28;20059;-81
2023/12/28 10:32:14;;;;;;;6.20;1.92;;;;;;;8.78;80.09;100044.19;10469539;28;20037;-80
2023/12/28 10:37:20;;;;;;;5.47;1.95;;;;;;;9.22;78.42;100036.25;10463962;28;20079;-80
2023/12/28 10:42:30;;;;;;;5.75;1.77;;;;;;;8.50;81.02;100039.28;10448473;28;20060;-80
2023/12/28 10:47:39;;;;;;;7.25;1.85;;;;;;;8.86;79.60;100048.94;10448393;28;20055;-80
2023/12/28 10:52:47;;;;;;;6.22;1.67;;;;;;;9.02;79.33;100061.94;10442061;28;20052;-80
2023/12/28 10:58:00;;;;;;;6.70;1.50;;;;;;;9.06;78.80;100056.25;10451655;28;20059;-80
2023/12/28 11:03:09;;;;;;;4.30;1.42;;;;;;;8.78;79.94;100044.19;10443372;28;21057;-80
2023/12/28 11:08:14;;;;;;;6.88;2.72;;;;;;;8.88;79.49;100043.44;10432201;28;20064;-80
2023/12/28 11:13:19;;;;;;;5.93;3.25;;;;;;;9.24;78.77;100023.56;10428233;28;20427;-80
2023/12/28 11:18:24;;;;;;;9.65;2.20;;;;;;;9.57;76.56;100027.13;10436790;28;20056;-80
2023/12/28 11:23:29;;;;;;;7.40;2.03;;;;;;;9.71;76.42;100040.28;10427793;28;20467;-78
2023/12/28 11:28:32;;;;;;;5.47;1.13;;;;;;;9.31;75.72;100037.34;10433526;28;20175;-81
2023/12/28 11:33:45;;;;;;;5.38;1.65;;;;;;;9.24;77.88;100032.47;10429993;28;20041;-82
2023/12/28 11:38:49;;;;;;;9.98;1.90;;;;;;;9.93;75.19;100015.22;10426932;28;20128;-81
2023/12/28 11:43:55;;;;;;;6.10;1.52;;;;;;;9.64;75.05;100009.56;10444670;28;20735;-79
2023/12/28 11:49:07;;;;;;;5.97;1.90;;;;;;;10.09;72.58;100015.63;10445804;28;21266;-81
2023/12/28 11:54:10;;;;;;;10.43;2.43;;;;;;;9.77;73.96;100023.69;10429337;28;20048;-81
2023/12/28 11:59:13;;;;;;;7.28;1.42;;;;;;;9.41;75.37;100011.50;10425576;28;20052;-81
2023/12/28 12:04:18;;;;;;;6.82;1.58;;;;;;;9.37;74.91;100021.59;10426934;28;20047;-80
2023/12/28 12:09:22;;;;;;;7.88;2.22;;;;;;;9.47;74.38;100035.94;10439144;28;20064;-81
2023/12/28 12:14:26;;;;;;;5.78;2.00;;;;;;;9.35;75.08;100011.97;10435981;28;20075;-81
2023/12/28 12:19:30;;;;;;;9.15;2.70;;;;;;;9.34;76.24;100004.91;10424508;28;20055;-81
2023/12/28 12:24:34;;;;;;;6.03;1.27;;;;;;;9.57;74.19;100013.72;10444903;28;20136;-79
2023/12/28 12:29:38;;;;;;;4.72;1.52;;;;;;;9.69;73.81;100002.00;10422992;28;20142;-79
2023/12/28 12:34:42;;;;;;;6.03;1.40;;;;;;;9.57;74.20;99995.84;10455874;28;20127;-79
2023/12/28 12:39:46;;;;;;;3.05;1.50;;;;;;;9.73;73.24;99990.88;10444246;28;20049;-80
2023/12/28 12:44:49;;;;;;;8.02;1.88;;;;;;;9.58;74.24;99997.53;10438860;28;21021;-79
2023/12/28 12:49:53;;;;;;;5.57;1.77;;;;;;;9.82;72.97;99988.41;10469594;28;20052;-81
2023/12/28 12:54:57;;;;;;;6.47;1.83;;;;;;;10.03;72.22;99991.13;10447491;28;20049;-80
2023/12/28 13:00:02;;;;;;;9.98;1.80;;;;;;;10.02;71.86;99967.97;10433446;28;20048;-80
2023/12/28 13:05:08;;;;;;;11.63;2.38;;;;;;;10.27;70.85;99967.56;10458348;28;20075;-81
2023/12/28 13:10:11;;;;;;;13.60;2.20;;;;;;;10.09;71.06;99966.47;10437742;28;20048;-82
2023/12/28 13:15:15;;;;;;;7.22;1.60;;;;;;;10.05;70.63;99968.56;10433220;28;20448;-80
2023/12/28 13:20:19;;;;;;;6.22;1.58;;;;;;;9.86;70.83;99968.44;10438939;28;20140;-80
2023/12/28 13:25:22;;;;;;;7.47;1.25;;;;;;;9.66;71.19;99951.31;10433791;28;20059;-80
2023/12/28 13:30:28;;;;;;;12.55;2.63;;;;;;;9.86;70.24;99936.22;10428041;28;20701;-81
2023/12/28 13:35:33;;;;;;;9.00;1.50;;;;;;;9.90;69.81;99935.84;10431975;28;20049;-82
2023/12/28 13:40:36;;;;;;;6.80;1.35;;;;;;;9.66;70.29;99935.22;10427676;28;21336;-81
2023/12/28 13:45:39;;;;;;;5.68;1.10;;;;;;;9.52;71.13;99939.06;10398657;28;20049;-79
2023/12/28 13:50:44;;;;;;;8.38;1.52;;;;;;;9.65;70.74;99944.22;10475385;28;20040;-78
2023/12/28 13:55:46;;;;;;;6.97;1.73;;;;;;;9.68;70.36;99952.00;10433474;28;20049;-79
2023/12/28 14:00:49;;;;;;;2.47;1.02;;;;;;;9.42;70.25;99963.09;10430480;28;21167;-79
2023/12/28 14:05:54;;;;;;;4.53;1.20;;;;;;;9.60;69.69;99943.75;10433957;28;20045;-81
2023/12/28 14:10:57;;;;;;;6.38;1.25;;;;;;;9.50;70.35;99941.00;10432109;28;20049;-81
2023/12/28 14:16:00;;;;;;;5.55;1.13;;;;;;;9.44;69.15;99941.53;10419816;28;20551;-81
2023/12/28 14:21:07;;;;;;;5.53;1.25;;;;;;;9.63;69.10;99939.00;10434984;28;20049;-81
2023/12/28 14:26:13;;;;;;;12.00;1.85;;;;;;;9.59;69.26;99955.47;10422761;28;20056;-79
2023/12/28 14:31:17;;;;;;;12.55;2.30;;;;;;;9.47;69.13;99936.75;10440140;28;20052;-81
2023/12/28 14:36:28;;;;;;;9.15;1.63;;;;;;;9.72;68.05;99926.66;10447375;28;20135;-80
2023/12/28 14:41:31;;;;;;;6.93;2.92;;;;;;;9.36;68.92;99939.47;10445243;28;20053;-82
2023/12/28 14:46:34;;;;;;;12.65;2.17;;;;;;;9.38;68.22;99942.00;10439924;28;20406;-79
2023/12/28 14:51:39;;;;;;;4.30;1.13;;;;;;;9.44;67.96;99937.00;10456264;28;20058;-81
2023/12/28 14:56:42;;;;;;;7.30;1.52;;;;;;;9.38;67.96;99958.09;10447736;28;20444;-80
2023/12/28 15:01:56;;;;;;;6.22;1.40;;;;;;;9.56;67.18;99953.06;10473452;28;20049;-80
2023/12/28 15:07:01;;;;;;;10.80;2.10;;;;;;;9.73;65.88;99958.69;10454931;28;21155;-81
2023/12/28 15:12:05;;;;;;;6.60;1.65;;;;;;;9.61;66.88;99926.72;10454131;28;20057;-80
2023/12/28 15:17:10;;;;;;;10.00;1.83;;;;;;;9.68;66.59;99935.91;10437988;28;20132;-80
2023/12/28 15:22:15;;;;;;;6.85;1.60;;;;;;;9.77;65.81;99932.47;10423324;28;20076;-80
2023/12/28 15:27:18;;;;;;;7.82;1.60;;;;;;;9.47;67.19;99930.53;10432444;28;20044;-80
2023/12/28 15:32:22;;;;;;;7.00;2.00;;;;;;;9.70;66.40;99937.50;10437798;28;21175;-80
2023/12/28 15:37:26;;;;;;;11.20;1.48;;;;;;;9.64;66.32;99939.84;10436844;28;20424;-81
2023/12/28 15:42:29;;;;;;;7.70;1.65;;;;;;;9.54;67.37;99931.72;10417101;28;20064;-81
2023/12/28 15:47:32;;;;;;;8.93;1.80;;;;;;;9.61;66.75;99930.22;10421290;28;20048;-80
2023/12/28 15:52:37;;;;;;;2.33;0.85;;;;;;;9.27;67.51;99922.34;10417098;28;20150;-81
2023/12/28 15:57:40;;;;;;;4.10;1.02;;;;;;;9.46;66.98;99918.97;10396572;28;20049;-81
2023/12/28 16:02:43;;;;;;;10.07;2.75;;;;;;;9.50;66.71;99916.88;10427206;28;20056;-80
2023/12/28 16:07:48;;;;;;;9.02;1.15;;;;;;;9.52;66.83;99912.25;10433604;28;20053;-80
2023/12/28 16:12:52;;;;;;;6.50;1.58;;;;;;;9.39;66.94;99911.56;10438436;28;20051;-80
2023/12/28 16:17:57;;;;;;;6.15;1.08;;;;;;;9.37;67.54;99898.28;10438970;28;20044;-81
2023/12/28 16:23:03;;;;;;;6.07;1.80;;;;;;;9.43;68.05;99894.25;10436738;28;20084;-80
2023/12/28 16:28:06;;;;;;;5.38;2.00;;;;;;;9.13;69.35;99903.00;10416303;28;20045;-80
2023/12/28 16:33:13;;;;;;;8.07;1.80;;;;;;;9.45;68.65;99898.50;10453412;28;20067;-81
2023/12/28 16:38:18;;;;;;;5.18;1.50;;;;;;;9.19;69.59;99906.03;10450510;28;20656;-80
2023/12/28 16:43:22;;;;;;;6.03;1.48;;;;;;;9.21;69.67;99922.81;10437806;28;21053;-80
2023/12/28 16:48:26;;;;;;;2.45;1.33;;;;;;;8.80;70.61;99910.16;10449510;28;20075;-80
2023/12/28 16:53:30;;;;;;;5.05;1.83;;;;;;;8.86;70.42;99903.44;10445433;28;20133;-80
2023/12/28 16:58:33;;;;;;;6.68;1.70;;;;;;;8.97;69.88;99909.63;10441928;28;20041;-80
2023/12/28 17:03:36;;;;;;;7.15;2.13;;;;;;;9.00;69.53;99897.81;10428524;28;20511;-81
2023/12/28 17:08:41;;;;;;;9.02;1.40;;;;;;;9.34;68.79;99887.81;10430818;28;20048;-80
2023/12/28 17:13:45;;;;;;;10.60;2.13;;;;;;;9.29;69.03;99882.00;10468961;28;20100;-81
2023/12/28 17:18:49;;;;;;;5.57;1.58;;;;;;;9.06;69.42;99873.19;10431842;28;20535;-81
2023/12/28 17:23:54;;;;;;;4.53;1.25;;;;;;;9.02;69.17;99885.13;10434744;28;20053;-81
2023/12/28 17:29:05;;;;;;;7.57;2.20;;;;;;;8.86;70.11;99887.38;10424742;28;20075;-81
2023/12/28 17:34:09;;;;;;;2.53;1.58;;;;;;;8.90;69.44;99888.84;10431921;28;20544;-81
2023/12/28 17:39:14;;;;;;;7.78;1.85;;;;;;;9.01;68.99;99896.84;10469691;28;21613;-80
2023/12/28 17:44:24;;;;;;;6.18;1.77;;;;;;;8.83;69.77;99893.81;10484521;28;21088;-80
2023/12/28 17:49:28;;;;;;;3.40;0.82;;;;;;;8.99;68.87;99875.53;10466372;28;20066;-80
2023/12/28 17:54:33;;;;;;;3.97;1.33;;;;;;;9.07;69.03;99890.97;10466006;28;20052;-80
2023/12/28 17:59:36;;;;;;;7.20;1.75;;;;;;;9.26;68.44;99876.91;10435898;28;20053;-81
2023/12/28 18:04:39;;;;;;;8.75;1.75;;;;;;;9.10;69.25;99863.06;10440139;28;20196;-80
2023/12/28 18:09:44;;;;;;;4.07;1.33;;;;;;;9.08;69.43;99873.06;10444161;28;20053;-79
2023/12/28 18:14:46;;;;;;;4.40;1.48;;;;;;;8.84;70.54;99877.66;10444305;28;20512;-79
2023/12/28 18:19:50;;;;;;;6.40;1.48;;;;;;;8.68;70.91;99865.63;10455368;28;20196;-81
2023/12/28 18:24:54;;;;;;;9.40;1.73;;;;;;;8.88;70.29;99861.31;10439629;28;20080;-81
2023/12/28 18:29:58;;;;;;;5.28;1.42;;;;;;;9.26;69.23;99871.53;10433497;28;20612;-80
2023/12/28 18:35:02;;;;;;;9.02;1.75;;;;;;;8.89;70.40;99879.09;10454371;28;20052;-80
2023/12/28 18:40:07;;;;;;;8.32;1.60;;;;;;;9.32;69.06;99867.47;10458503;28;20055;-79
2023/12/28 18:45:11;;;;;;;9.25;1.80;;;;;;;9.13;70.20;99863.66;10465697;28;20995;-80
2023/12/28 18:50:14;;;;;;;8.98;1.88;;;;;;;8.91;70.83;99875.28;10427122;28;20091;-79
2023/12/28 18:55:18;;;;;;;6.20;1.50;;;;;;;9.00;70.16;99879.06;10447344;28;20048;-80
2023/12/28 19:00:21;;;;;;;10.60;1.50;;;;;;;8.99;70.83;99867.47;10437982;28;20044;-81
2023/12/28 19:05:24;;;;;;;7.00;1.30;;;;;;;9.05;71.03;99871.47;10454198;28;20044;-80
2023/12/28 19:10:29;;;;;;;6.05;1.27;;;;;;;9.12;70.69;99871.84;10445584;28;20055;-79
2023/12/28 19:15:32;;;;;;;6.95;1.63;;;;;;;8.94;71.33;99874.19;10444595;28;20428;-80
2023/12/28 19:20:35;;;;;;;5.35;1.25;;;;;;;8.65;72.81;99877.44;10450681;28;20091;-81
2023/12/28 19:25:39;;;;;;;4.82;1.48;;;;;;;9.06;71.81;99868.69;10482373;28;20053;-80
2023/12/28 19:30:42;;;;;;;7.03;1.20;;;;;;;8.77;72.83;99864.88;10426084;28;20802;-81
2023/12/28 19:35:46;;;;;;;3.88;1.45;;;;;;;8.59;73.12;99868.09;10430637;28;20424;-80
2023/12/28 19:40:51;;;;;;;5.07;1.15;;;;;;;8.89;71.70;99857.69;10411276;28;20079;-80
2023/12/28 19:45:55;;;;;;;5.25;1.20;;;;;;;8.79;71.87;99860.25;10414145;28;20767;-81
2023/12/28 19:50:58;;;;;;;9.23;1.15;;;;;;;9.11;70.60;99854.06;10411685;28;20079;-82
2023/12/28 19:56:03;;;;;;;8.40;1.42;;;;;;;9.01;71.13;99841.44;10458372;28;20056;-81
2023/12/28 20:01:07;;;;;;;5.47;1.30;;;;;;;9.11;70.78;99838.84;10431733;28;20504;-81
2023/12/28 20:06:10;;;;;;;3.28;1.20;;;;;;;8.77;71.56;99808.63;10450995;28;20049;-80
2023/12/28 20:11:14;;;;;;;5.63;1.77;;;;;;;9.39;69.83;99828.47;10446255;28;20056;-81
2023/12/28 20:16:17;;;;;;;6.93;1.48;;;;;;;9.18;70.21;99826.63;10416672;28;20052;-81
2023/12/28 20:21:21;;;;;;;4.07;1.00;;;;;;;9.09;70.98;99822.03;10455969;28;20052;-81
2023/12/28 20:26:26;;;;;;;5.55;1.70;;;;;;;9.22;70.68;99814.66;10437888;28;20809;-81
2023/12/28 20:31:31;;;;;;;6.80;1.38;;;;;;;9.08;71.23;99811.44;10459936;28;20439;-81
2023/12/28 20:36:34;;;;;;;4.38;1.13;;;;;;;9.13;71.32;99799.34;10440326;28;20049;-80
2023/12/28 20:41:39;;;;;;;7.70;1.60;;;;;;;8.93;71.71;99795.66;10445284;28;20693;-81
2023/12/28 20:46:42;;;;;;;6.55;1.48;;;;;;;9.11;71.88;99793.28;10434907;28;20163;-80
2023/12/28 20:51:45;;;;;;;4.07;1.08;;;;;;;8.93;72.28;99806.38;10445571;28;20571;-80
2023/12/28 20:56:49;;;;;;;4.18;1.55;;;;;;;8.90;71.47;99790.56;10454719;28;20512;-79
2023/12/28 21:01:52;;;;;;;7.70;1.52;;;;;;;8.69;71.85;99797.72;10448739;28;20064;-80
2023/12/28 21:06:55;;;;;;;5.30;1.75;;;;;;;8.82;71.71;99801.91;10436361;28;21176;-80
2023/12/28 21:12:01;;;;;;;4.85;1.00;;;;;;;8.50;72.32;99815.31;10426815;28;20064;-80
2023/12/28 21:17:05;;;;;;;2.72;1.00;;;;;;;8.51;71.84;99792.91;10438672;28;20151;-80
2023/12/28 21:22:08;;;;;;;8.77;1.80;;;;;;;8.82;71.43;99793.88;10439165;28;20053;-80
2023/12/28 21:27:12;;;;;;;5.22;1.48;;;;;;;8.91;71.15;99788.75;10421679;28;20048;-81
2023/12/28 21:32:16;;;;;;;3.38;1.15;;;;;;;8.55;72.24;99791.66;10439551;28;20709;-81
2023/12/28 21:37:19;;;;;;;6.43;1.73;;;;;;;8.93;70.68;99768.88;10466975;28;20059;-81
2023/12/28 21:42:24;;;;;;;7.97;1.17;;;;;;;9.11;70.29;99760.28;10437791;28;20147;-81
2023/12/28 21:47:28;;;;;;;7.10;1.50;;;;;;;9.06;70.46;99777.59;10442891;28;20725;-81
2023/12/28 21:52:31;;;;;;;2.55;1.15;;;;;;;8.96;71.11;99759.75;10436451;28;20130;-80
2023/12/28 21:57:35;;;;;;;12.07;2.90;;;;;;;8.68;72.20;99762.06;10439906;28;20048;-80
2023/12/28 22:02:40;;;;;;;2.53;1.30;;;;;;;8.78;71.73;99759.47;10449059;28;20854;-79
2023/12/28 22:07:43;;;;;;;3.42;1.35;;;;;;;9.15;70.23;99751.00;10436856;28;20083;-80
2023/12/28 22:12:47;;;;;;;9.80;1.17;;;;;;;8.65;72.09;99766.81;10443104;28;20048;-79
2023/12/28 22:17:50;;;;;;;4.57;1.33;;;;;;;8.61;72.22;99755.50;10449644;28;20059;-80
2023/12/28 22:22:53;;;;;;;5.57;1.60;;;;;;;8.48;73.25;99742.28;10439099;28;20050;-80
2023/12/28 22:27:57;;;;;;;2.67;1.23;;;;;;;8.73;72.02;99749.13;10420320;28;20552;-80
2023/12/28 22:33:00;;;;;;;2.72;1.15;;;;;;;8.68;71.66;99721.06;10428887;28;20687;-82
2023/12/28 22:38:04;;;;;;;6.75;2.20;;;;;;;8.47;73.11;99737.91;10425292;28;21461;-81
2023/12/28 22:43:08;;;;;;;6.80;1.50;;;;;;;8.69;72.61;99741.47;10433349;28;20064;-81
2023/12/28 22:48:12;;;;;;;3.38;1.40;;;;;;;8.65;72.76;99721.31;10426027;28;20124;-80
2023/12/28 22:53:15;;;;;;;2.92;1.20;;;;;;;8.47;73.00;99726.34;10408644;28;20041;-80
2023/12/28 22:58:19;;;;;;;3.60;1.25;;;;;;;8.63;71.95;99709.88;10433537;28;20048;-81
2023/12/28 23:03:23;;;;;;;8.07;1.25;;;;;;;8.38;73.52;99715.41;10446091;28;20119;-82
2023/12/28 23:08:27;;;;;;;8.57;1.27;;;;;;;8.76;71.99;99711.38;10445686;28;20464;-81
2023/12/28 23:13:31;;;;;;;4.30;1.35;;;;;;;8.90;71.71;99680.75;10441335;28;20072;-80
2023/12/28 23:18:34;;;;;;;4.78;1.10;;;;;;;8.55;72.14;99694.44;10439015;28;20075;-81
2023/12/28 23:23:37;;;;;;;4.03;1.50;;;;;;;8.48;72.32;99703.97;10431050;28;20416;-80
2023/12/28 23:28:42;;;;;;;5.53;0.93;;;;;;;8.63;71.88;99670.56;10439506;28;20067;-80
2023/12/28 23:33:45;;;;;;;3.72;2.03;;;;;;;8.68;71.98;99680.88;10445451;28;20067;-80
2023/12/28 23:38:48;;;;;;;6.07;1.05;;;;;;;8.57;73.10;99676.44;10423966;28;20049;-80
2023/12/28 23:43:52;;;;;;;4.70;1.77;;;;;;;8.89;71.91;99676.41;10451314;28;20696;-80